sensor_id;sensor_type;location;lat;lon;timestamp;pressure;altitude;pressure_sealevel;temperature;humidity
41800;BME280;27468;47.460;19.034;2023-09-19T00:01:07;99845.97;;;22.55;67.59
41800;BME280;27468;47.460;19.034;2023-09-19T00:03:34;99832.91;;;22.39;67.62
41800;BME280;27468;47.460;19.034;2023-09-19T00:06:02;99845.75;;;22.47;67.83
41800;BME280;27468;47.460;19.034;2023-09-19T00:08:28;99843.19;;;22.45;67.67
41800;BME280;27468;47.460;19.034;2023-09-19T00:10:54;99840.84;;;22.40;68.21
41800;BME280;27468;47.460;19.034;2023-09-19T00:13:20;99811.25;;;22.18;68.24
41800;BME280;27468;47.460;19.034;2023-09-19T00:15:47;99836.69;;;22.36;68.25
41800;BME280;27468;47.460;19.034;2023-09-19T00:18:16;99856.84;;;22.53;68.33
41800;BME280;27468;47.460;19.034;2023-09-19T00:20:44;99823.00;;;22.28;68.46
41800;BME280;27468;47.460;19.034;2023-09-19T00:23:16;99864.44;;;22.48;68.65
41800;BME280;27468;47.460;19.034;2023-09-19T00:25:42;99838.63;;;22.34;68.93
41800;BME280;27468;47.460;19.034;2023-09-19T00:28:08;99828.94;;;22.21;69.31
41800;BME280;27468;47.460;19.034;2023-09-19T00:30:36;99850.22;;;22.35;69.26
41800;BME280;27468;47.460;19.034;2023-09-19T00:33:04;99815.59;;;22.08;69.97
41800;BME280;27468;47.460;19.034;2023-09-19T00:35:32;99859.84;;;22.26;69.79
41800;BME280;27468;47.460;19.034;2023-09-19T00:37:58;99832.94;;;22.15;70.09
41800;BME280;27468;47.460;19.034;2023-09-19T00:40:23;99850.69;;;22.29;69.89
41800;BME280;27468;47.460;19.034;2023-09-19T00:42:49;99846.88;;;22.20;70.71
41800;BME280;27468;47.460;19.034;2023-09-19T00:45:17;99828.41;;;22.04;70.85
41800;BME280;27468;47.460;19.034;2023-09-19T00:47:50;99851.75;;;22.15;71.14
41800;BME280;27468;47.460;19.034;2023-09-19T00:50:18;99862.50;;;22.15;71.82
41800;BME280;27468;47.460;19.034;2023-09-19T00:52:48;99857.38;;;21.99;72.24
41800;BME280;27468;47.460;19.034;2023-09-19T00:55:16;99843.59;;;21.93;72.46
41800;BME280;27468;47.460;19.034;2023-09-19T00:57:45;99825.84;;;21.79;72.84
41800;BME280;27468;47.460;19.034;2023-09-19T01:00:11;99865.13;;;22.04;72.38
41800;BME280;27468;47.460;19.034;2023-09-19T01:02:44;99863.94;;;21.95;73.73
41800;BME280;27468;47.460;19.034;2023-09-19T01:05:10;99857.38;;;21.99;73.45
41800;BME280;27468;47.460;19.034;2023-09-19T01:07:36;99836.97;;;21.86;73.37
41800;BME280;27468;47.460;19.034;2023-09-19T01:10:06;99865.53;;;21.98;73.30
41800;BME280;27468;47.460;19.034;2023-09-19T01:12:47;99861.16;;;21.97;73.86
41800;BME280;27468;47.460;19.034;2023-09-19T01:26:23;99856.22;;;21.80;75.34
41800;BME280;27468;47.460;19.034;2023-09-19T01:31:23;99816.59;;;21.59;74.57
41800;BME280;27468;47.460;19.034;2023-09-19T01:34:03;99840.47;;;21.75;75.72
41800;BME280;27468;47.460;19.034;2023-09-19T01:36:35;99828.41;;;21.57;77.08
41800;BME280;27468;47.460;19.034;2023-09-19T01:39:05;99795.53;;;21.42;77.53
41800;BME280;27468;47.460;19.034;2023-09-19T01:42:09;99839.94;;;21.70;77.24
41800;BME280;27468;47.460;19.034;2023-09-19T01:44:56;99846.63;;;21.64;77.22
41800;BME280;27468;47.460;19.034;2023-09-19T01:49:57;99837.66;;;21.53;77.56
41800;BME280;27468;47.460;19.034;2023-09-19T01:52:28;99827.59;;;21.43;77.28
41800;BME280;27468;47.460;19.034;2023-09-19T01:55:02;99842.38;;;21.49;77.42
41800;BME280;27468;47.460;19.034;2023-09-19T01:57:42;99788.75;;;21.13;78.24
41800;BME280;27468;47.460;19.034;2023-09-19T02:00:16;99832.91;;;21.32;79.24
41800;BME280;27468;47.460;19.034;2023-09-19T02:02:47;99843.31;;;21.37;79.53
41800;BME280;27468;47.460;19.034;2023-09-19T02:05:13;99817.91;;;21.17;79.79
41800;BME280;27468;47.460;19.034;2023-09-19T02:07:39;99843.97;;;21.28;80.44
41800;BME280;27468;47.460;19.034;2023-09-19T02:10:06;99836.56;;;21.19;81.43
41800;BME280;27468;47.460;19.034;2023-09-19T02:12:32;99853.72;;;21.16;81.97
41800;BME280;27468;47.460;19.034;2023-09-19T02:14:58;99847.59;;;21.14;81.97
41800;BME280;27468;47.460;19.034;2023-09-19T02:17:25;99818.91;;;20.91;82.51
41800;BME280;27468;47.460;19.034;2023-09-19T02:19:56;99853.84;;;21.02;83.69
41800;BME280;27468;47.460;19.034;2023-09-19T02:22:24;99804.47;;;20.68;84.22
41800;BME280;27468;47.460;19.034;2023-09-19T02:24:50;99823.50;;;20.89;83.31
41800;BME280;27468;47.460;19.034;2023-09-19T02:27:16;99836.47;;;20.95;83.65
41800;BME280;27468;47.460;19.034;2023-09-19T02:29:44;99845.47;;;20.94;84.61
41800;BME280;27468;47.460;19.034;2023-09-19T02:32:10;99839.47;;;20.90;83.71
41800;BME280;27468;47.460;19.034;2023-09-19T02:34:36;99785.75;;;20.55;84.96
41800;BME280;27468;47.460;19.034;2023-09-19T02:37:05;99797.84;;;20.61;84.77
41800;BME280;27468;47.460;19.034;2023-09-19T02:39:32;99820.25;;;20.72;85.19
41800;BME280;27468;47.460;19.034;2023-09-19T02:41:57;99843.78;;;20.93;84.81
41800;BME280;27468;47.460;19.034;2023-09-19T02:44:23;99826.34;;;20.74;84.66
41800;BME280;27468;47.460;19.034;2023-09-19T02:46:49;99855.66;;;20.89;85.16
41800;BME280;27468;47.460;19.034;2023-09-19T02:49:14;99852.25;;;20.87;85.22
41800;BME280;27468;47.460;19.034;2023-09-19T02:51:40;99830.19;;;20.70;85.48
41800;BME280;27468;47.460;19.034;2023-09-19T02:54:06;99827.41;;;20.72;86.25
41800;BME280;27468;47.460;19.034;2023-09-19T02:56:31;99813.81;;;20.62;86.39
41800;BME280;27468;47.460;19.034;2023-09-19T02:58:57;99847.88;;;20.73;87.25
41800;BME280;27468;47.460;19.034;2023-09-19T03:01:23;99800.00;;;20.56;86.19
41800;BME280;27468;47.460;19.034;2023-09-19T03:03:48;99827.84;;;20.66;87.01
41800;BME280;27468;47.460;19.034;2023-09-19T03:06:15;99772.97;;;20.33;87.18
41800;BME280;27468;47.460;19.034;2023-09-19T03:08:45;99853.44;;;20.70;86.77
41800;BME280;27468;47.460;19.034;2023-09-19T03:11:12;99795.81;;;20.39;87.04
41800;BME280;27468;47.460;19.034;2023-09-19T03:13:40;99853.13;;;20.62;87.79
41800;BME280;27468;47.460;19.034;2023-09-19T03:16:07;99815.69;;;20.35;87.46
41800;BME280;27468;47.460;19.034;2023-09-19T03:18:35;99806.16;;;20.31;87.79
41800;BME280;27468;47.460;19.034;2023-09-19T03:21:01;99846.81;;;20.63;87.97
41800;BME280;27468;47.460;19.034;2023-09-19T03:23:27;99830.84;;;20.61;87.56
41800;BME280;27468;47.460;19.034;2023-09-19T03:25:54;99835.66;;;20.69;88.06
41800;BME280;27468;47.460;19.034;2023-09-19T03:28:20;99811.88;;;20.39;88.72
41800;BME280;27468;47.460;19.034;2023-09-19T03:31:01;99811.00;;;20.38;88.68
41800;BME280;27468;47.460;19.034;2023-09-19T03:33:27;99829.97;;;20.48;89.33
41800;BME280;27468;47.460;19.034;2023-09-19T03:35:53;99847.22;;;20.57;89.38
41800;BME280;27468;47.460;19.034;2023-09-19T03:38:19;99812.03;;;20.36;88.84
41800;BME280;27468;47.460;19.034;2023-09-19T03:40:46;99810.53;;;20.32;89.20
41800;BME280;27468;47.460;19.034;2023-09-19T03:43:11;99821.72;;;20.38;89.17
41800;BME280;27468;47.460;19.034;2023-09-19T03:45:37;99827.50;;;20.45;89.29
41800;BME280;27468;47.460;19.034;2023-09-19T03:48:10;99843.16;;;20.51;89.40
41800;BME280;27468;47.460;19.034;2023-09-19T03:50:36;99840.78;;;20.47;89.31
41800;BME280;27468;47.460;19.034;2023-09-19T03:53:02;99843.56;;;20.45;89.58
41800;BME280;27468;47.460;19.034;2023-09-19T03:55:28;99852.91;;;20.52;88.84
41800;BME280;27468;47.460;19.034;2023-09-19T03:57:55;99803.59;;;20.17;89.74
41800;BME280;27468;47.460;19.034;2023-09-19T04:00:21;99821.56;;;20.27;89.76
41800;BME280;27468;47.460;19.034;2023-09-19T04:02:49;99807.88;;;20.19;89.77
41800;BME280;27468;47.460;19.034;2023-09-19T04:05:14;99797.81;;;20.10;90.00
41800;BME280;27468;47.460;19.034;2023-09-19T04:07:39;99833.22;;;20.26;89.94
41800;BME280;27468;47.460;19.034;2023-09-19T04:10:05;99852.09;;;20.37;90.10
41800;BME280;27468;47.460;19.034;2023-09-19T04:12:33;99846.97;;;20.34;90.11
41800;BME280;27468;47.460;19.034;2023-09-19T04:14:59;99832.28;;;20.27;90.27
41800;BME280;27468;47.460;19.034;2023-09-19T04:17:24;99819.09;;;20.24;89.99
41800;BME280;27468;47.460;19.034;2023-09-19T04:19:50;99862.53;;;20.42;89.63
41800;BME280;27468;47.460;19.034;2023-09-19T04:22:15;99813.44;;;20.16;90.24
41800;BME280;27468;47.460;19.034;2023-09-19T04:24:41;99850.69;;;20.32;90.37
41800;BME280;27468;47.460;19.034;2023-09-19T04:27:06;99815.25;;;20.16;89.92
41800;BME280;27468;47.460;19.034;2023-09-19T04:29:32;99878.06;;;20.50;90.38
41800;BME280;27468;47.460;19.034;2023-09-19T04:31:58;99866.72;;;20.46;90.26
41800;BME280;27468;47.460;19.034;2023-09-19T04:34:23;99841.25;;;20.26;90.66
41800;BME280;27468;47.460;19.034;2023-09-19T04:36:49;99839.75;;;20.22;91.05
41800;BME280;27468;47.460;19.034;2023-09-19T04:39:15;99877.53;;;20.44;90.70
41800;BME280;27468;47.460;19.034;2023-09-19T04:41:41;99860.72;;;20.42;91.14
41800;BME280;27468;47.460;19.034;2023-09-19T04:44:07;99866.50;;;20.49;90.79
41800;BME280;27468;47.460;19.034;2023-09-19T04:46:34;99893.63;;;20.70;90.38
41800;BME280;27468;47.460;19.034;2023-09-19T04:48:59;99881.31;;;20.67;90.36
41800;BME280;27468;47.460;19.034;2023-09-19T04:51:24;99894.06;;;20.76;90.11
41800;BME280;27468;47.460;19.034;2023-09-19T04:53:52;99905.94;;;20.85;89.59
41800;BME280;27468;47.460;19.034;2023-09-19T04:56:17;99916.22;;;20.91;87.81
41800;BME280;27468;47.460;19.034;2023-09-19T04:58:42;99887.63;;;20.79;87.01
41800;BME280;27468;47.460;19.034;2023-09-19T05:01:08;99864.06;;;20.71;86.25
41800;BME280;27468;47.460;19.034;2023-09-19T05:03:37;99859.44;;;20.61;86.01
41800;BME280;27468;47.460;19.034;2023-09-19T05:06:02;99910.44;;;20.85;86.12
41800;BME280;27468;47.460;19.034;2023-09-19T05:08:29;99928.88;;;20.89;86.47
41800;BME280;27468;47.460;19.034;2023-09-19T05:10:54;99879.59;;;20.66;86.18
41800;BME280;27468;47.460;19.034;2023-09-19T05:13:21;99919.00;;;20.90;86.29
41800;BME280;27468;47.460;19.034;2023-09-19T05:15:48;99927.81;;;20.92;86.23
41800;BME280;27468;47.460;19.034;2023-09-19T05:18:15;99920.41;;;20.83;86.58
41800;BME280;27468;47.460;19.034;2023-09-19T05:20:41;99914.53;;;20.77;86.66
41800;BME280;27468;47.460;19.034;2023-09-19T05:23:07;99902.84;;;20.66;86.38
41800;BME280;27468;47.460;19.034;2023-09-19T05:25:37;99957.28;;;20.79;85.56
41800;BME280;27468;47.460;19.034;2023-09-19T05:28:08;99946.13;;;20.72;85.82
41800;BME280;27468;47.460;19.034;2023-09-19T05:30:35;99954.63;;;20.79;85.41
41800;BME280;27468;47.460;19.034;2023-09-19T05:33:08;99948.69;;;20.61;85.61
41800;BME280;27468;47.460;19.034;2023-09-19T05:35:34;99950.63;;;20.59;86.05
41800;BME280;27468;47.460;19.034;2023-09-19T05:38:05;99954.59;;;20.66;85.84
41800;BME280;27468;47.460;19.034;2023-09-19T05:40:34;99941.72;;;20.59;85.35
41800;BME280;27468;47.460;19.034;2023-09-19T05:43:00;99950.84;;;20.69;84.89
41800;BME280;27468;47.460;19.034;2023-09-19T05:45:25;99944.09;;;20.63;84.81
41800;BME280;27468;47.460;19.034;2023-09-19T05:47:53;99925.97;;;20.54;84.84
41800;BME280;27468;47.460;19.034;2023-09-19T05:50:26;99940.09;;;20.56;85.60
41800;BME280;27468;47.460;19.034;2023-09-19T05:52:52;99925.41;;;20.49;85.77
41800;BME280;27468;47.460;19.034;2023-09-19T05:55:18;99949.69;;;20.73;84.98
41800;BME280;27468;47.460;19.034;2023-09-19T05:57:49;99925.75;;;20.57;84.02
41800;BME280;27468;47.460;19.034;2023-09-19T06:00:15;99965.84;;;20.84;83.41
41800;BME280;27468;47.460;19.034;2023-09-19T06:02:43;99963.94;;;20.73;83.85
41800;BME280;27468;47.460;19.034;2023-09-19T06:05:10;99960.19;;;20.76;83.03
41800;BME280;27468;47.460;19.034;2023-09-19T06:07:36;99951.38;;;20.61;83.63
41800;BME280;27468;47.460;19.034;2023-09-19T06:10:06;99967.13;;;20.66;83.70
41800;BME280;27468;47.460;19.034;2023-09-19T06:12:39;99961.78;;;20.66;84.03
41800;BME280;27468;47.460;19.034;2023-09-19T06:15:05;99929.81;;;20.50;83.76
41800;BME280;27468;47.460;19.034;2023-09-19T06:17:31;99975.28;;;20.77;83.23
41800;BME280;27468;47.460;19.034;2023-09-19T06:19:56;99967.69;;;20.71;83.23
41800;BME280;27468;47.460;19.034;2023-09-19T06:22:22;99980.41;;;20.80;82.96
41800;BME280;27468;47.460;19.034;2023-09-19T06:24:49;99988.91;;;20.74;82.69
41800;BME280;27468;47.460;19.034;2023-09-19T06:27:15;99936.84;;;20.38;82.90
41800;BME280;27468;47.460;19.034;2023-09-19T06:29:40;99941.34;;;20.38;83.34
41800;BME280;27468;47.460;19.034;2023-09-19T06:32:07;99988.00;;;20.61;83.66
41800;BME280;27468;47.460;19.034;2023-09-19T06:34:34;99970.63;;;20.54;83.04
41800;BME280;27468;47.460;19.034;2023-09-19T06:36:59;99942.38;;;20.35;83.69
41800;BME280;27468;47.460;19.034;2023-09-19T06:39:25;99980.84;;;20.61;83.61
41800;BME280;27468;47.460;19.034;2023-09-19T06:41:51;99940.09;;;20.29;84.27
41800;BME280;27468;47.460;19.034;2023-09-19T06:44:19;99952.34;;;20.33;84.78
41800;BME280;27468;47.460;19.034;2023-09-19T06:46:47;99997.72;;;20.49;85.04
41800;BME280;27468;47.460;19.034;2023-09-19T06:49:16;99997.72;;;20.49;84.93
41800;BME280;27468;47.460;19.034;2023-09-19T06:51:42;99987.41;;;20.43;85.50
41800;BME280;27468;47.460;19.034;2023-09-19T06:54:08;100002.00;;;20.52;85.09
41800;BME280;27468;47.460;19.034;2023-09-19T06:56:33;99959.50;;;20.20;85.40
41800;BME280;27468;47.460;19.034;2023-09-19T06:58:59;99984.84;;;20.27;86.59
41800;BME280;27468;47.460;19.034;2023-09-19T07:01:24;99970.81;;;20.24;88.29
41800;BME280;27468;47.460;19.034;2023-09-19T07:03:50;99981.00;;;20.19;88.49
41800;BME280;27468;47.460;19.034;2023-09-19T07:06:16;100010.34;;;20.20;88.16
41800;BME280;27468;47.460;19.034;2023-09-19T07:08:41;99997.84;;;20.06;89.39
41800;BME280;27468;47.460;19.034;2023-09-19T07:11:07;100033.25;;;20.24;90.47
41800;BME280;27468;47.460;19.034;2023-09-19T07:13:32;100040.41;;;20.38;91.59
41800;BME280;27468;47.460;19.034;2023-09-19T07:16:01;100012.34;;;20.17;93.61
41800;BME280;27468;47.460;19.034;2023-09-19T07:18:26;100049.47;;;20.35;93.64
41800;BME280;27468;47.460;19.034;2023-09-19T07:20:57;100040.88;;;20.30;94.75
41800;BME280;27468;47.460;19.034;2023-09-19T07:23:26;100041.19;;;20.26;94.42
41800;BME280;27468;47.460;19.034;2023-09-19T07:25:51;100058.00;;;20.42;94.90
41800;BME280;27468;47.460;19.034;2023-09-19T07:28:17;100009.69;;;20.17;94.80
41800;BME280;27468;47.460;19.034;2023-09-19T07:30:42;100045.94;;;20.35;94.05
41800;BME280;27468;47.460;19.034;2023-09-19T07:33:08;100062.41;;;20.29;96.11
41800;BME280;27468;47.460;19.034;2023-09-19T07:35:37;100020.72;;;19.98;93.99
41800;BME280;27468;47.460;19.034;2023-09-19T07:38:05;100030.56;;;19.97;94.52
41800;BME280;27468;47.460;19.034;2023-09-19T07:40:30;100026.34;;;19.93;94.18
41800;BME280;27468;47.460;19.034;2023-09-19T07:42:56;100073.63;;;20.21;94.17
41800;BME280;27468;47.460;19.034;2023-09-19T07:45:21;100061.22;;;20.06;93.42
41800;BME280;27468;47.460;19.034;2023-09-19T07:47:49;100078.31;;;20.18;93.31
41800;BME280;27468;47.460;19.034;2023-09-19T07:50:18;100064.66;;;20.08;94.58
41800;BME280;27468;47.460;19.034;2023-09-19T07:52:45;100083.88;;;20.15;93.97
41800;BME280;27468;47.460;19.034;2023-09-19T07:55:11;100096.63;;;20.24;93.56
41800;BME280;27468;47.460;19.034;2023-09-19T07:57:37;100101.13;;;20.23;95.07
41800;BME280;27468;47.460;19.034;2023-09-19T08:00:03;100102.41;;;20.18;95.99
41800;BME280;27468;47.460;19.034;2023-09-19T08:02:36;100121.59;;;20.24;96.14
41800;BME280;27468;47.460;19.034;2023-09-19T08:05:04;100115.06;;;20.28;97.43
41800;BME280;27468;47.460;19.034;2023-09-19T08:07:36;100117.50;;;20.19;98.20
41800;BME280;27468;47.460;19.034;2023-09-19T08:10:03;100125.34;;;20.22;97.97
41800;BME280;27468;47.460;19.034;2023-09-19T08:12:29;100111.09;;;20.21;98.01
41800;BME280;27468;47.460;19.034;2023-09-19T08:14:55;100127.97;;;20.36;97.60
41800;BME280;27468;47.460;19.034;2023-09-19T08:17:21;100114.88;;;20.31;96.89
41800;BME280;27468;47.460;19.034;2023-09-19T08:19:48;100136.19;;;20.33;97.18
41800;BME280;27468;47.460;19.034;2023-09-19T08:22:14;100115.03;;;20.16;96.71
41800;BME280;27468;47.460;19.034;2023-09-19T08:24:42;100134.88;;;20.26;96.40
41800;BME280;27468;47.460;19.034;2023-09-19T08:27:08;100137.00;;;20.21;97.29
41800;BME280;27468;47.460;19.034;2023-09-19T08:29:35;100116.28;;;20.10;97.50
41800;BME280;27468;47.460;19.034;2023-09-19T08:32:00;100150.16;;;20.24;96.43
41800;BME280;27468;47.460;19.034;2023-09-19T08:34:26;100138.72;;;20.22;97.24
41800;BME280;27468;47.460;19.034;2023-09-19T08:36:53;100141.59;;;20.19;98.37
41800;BME280;27468;47.460;19.034;2023-09-19T08:39:22;100162.69;;;20.37;97.56
41800;BME280;27468;47.460;19.034;2023-09-19T08:41:47;100149.13;;;20.26;97.86
41800;BME280;27468;47.460;19.034;2023-09-19T08:44:13;100185.09;;;20.51;96.20
41800;BME280;27468;47.460;19.034;2023-09-19T08:46:41;100162.03;;;20.34;97.34
41800;BME280;27468;47.460;19.034;2023-09-19T08:49:23;100195.31;;;20.44;98.16
41800;BME280;27468;47.460;19.034;2023-09-19T08:52:01;100176.75;;;20.27;97.84
41800;BME280;27468;47.460;19.034;2023-09-19T08:54:35;100217.59;;;20.44;97.56
41800;BME280;27468;47.460;19.034;2023-09-19T08:57:06;100210.63;;;20.42;97.72
41800;BME280;27468;47.460;19.034;2023-09-19T08:59:38;100203.81;;;20.36;98.80
41800;BME280;27468;47.460;19.034;2023-09-19T09:02:11;100220.09;;;20.48;100.00
41800;BME280;27468;47.460;19.034;2023-09-19T09:04:39;100192.03;;;20.25;100.00
41800;BME280;27468;47.460;19.034;2023-09-19T09:07:10;100160.06;;;20.09;100.00
41800;BME280;27468;47.460;19.034;2023-09-19T09:09:37;100198.97;;;20.43;100.00
41800;BME280;27468;47.460;19.034;2023-09-19T09:12:04;100192.34;;;20.49;100.00
41800;BME280;27468;47.460;19.034;2023-09-19T09:14:30;100169.97;;;20.50;100.00
41800;BME280;27468;47.460;19.034;2023-09-19T09:16:56;100155.22;;;20.57;100.00
41800;BME280;27468;47.460;19.034;2023-09-19T09:19:24;100107.81;;;20.44;100.00
41800;BME280;27468;47.460;19.034;2023-09-19T09:21:51;100138.50;;;20.80;100.00
41800;BME280;27468;47.460;19.034;2023-09-19T09:24:29;100128.59;;;20.95;100.00
41800;BME280;27468;47.460;19.034;2023-09-19T09:26:56;100112.00;;;21.02;100.00
41800;BME280;27468;47.460;19.034;2023-09-19T09:29:45;100109.91;;;21.20;100.00
41800;BME280;27468;47.460;19.034;2023-09-19T09:32:29;100122.72;;;21.42;100.00
41800;BME280;27468;47.460;19.034;2023-09-19T09:35:00;100073.16;;;21.22;100.00
41800;BME280;27468;47.460;19.034;2023-09-19T09:37:26;100113.28;;;21.49;98.60
41800;BME280;27468;47.460;19.034;2023-09-19T09:40:02;100094.53;;;21.36;98.61
41800;BME280;27468;47.460;19.034;2023-09-19T09:42:40;100143.00;;;21.59;98.04
41800;BME280;27468;47.460;19.034;2023-09-19T09:45:21;100157.91;;;21.50;98.55
41800;BME280;27468;47.460;19.034;2023-09-19T09:48:03;100137.94;;;21.29;99.26
41800;BME280;27468;47.460;19.034;2023-09-19T09:50:36;100177.66;;;21.49;100.00
41800;BME280;27468;47.460;19.034;2023-09-19T09:53:04;100164.00;;;21.39;100.00
41800;BME280;27468;47.460;19.034;2023-09-19T09:56:08;100181.72;;;21.42;99.25
41800;BME280;27468;47.460;19.034;2023-09-19T09:59:01;100168.41;;;21.40;98.63
41800;BME280;27468;47.460;19.034;2023-09-19T10:01:46;100153.94;;;21.43;97.12
41800;BME280;27468;47.460;19.034;2023-09-19T10:04:27;100139.97;;;21.38;96.14
41800;BME280;27468;47.460;19.034;2023-09-19T10:07:09;100129.78;;;21.30;96.83
41800;BME280;27468;47.460;19.034;2023-09-19T10:09:46;100162.97;;;21.55;97.31
41800;BME280;27468;47.460;19.034;2023-09-19T10:12:13;100170.28;;;21.78;96.88
41800;BME280;27468;47.460;19.034;2023-09-19T10:14:42;100168.13;;;21.96;96.05
41800;BME280;27468;47.460;19.034;2023-09-19T10:17:13;100169.00;;;22.09;95.74
41800;BME280;27468;47.460;19.034;2023-09-19T10:19:55;100169.53;;;22.14;93.63
41800;BME280;27468;47.460;19.034;2023-09-19T10:22:26;100152.69;;;22.12;94.45
41800;BME280;27468;47.460;19.034;2023-09-19T10:24:53;100130.47;;;22.10;93.74
41800;BME280;27468;47.460;19.034;2023-09-19T10:27:19;100143.88;;;22.23;93.88
41800;BME280;27468;47.460;19.034;2023-09-19T10:29:48;100137.00;;;22.19;93.18
41800;BME280;27468;47.460;19.034;2023-09-19T10:32:16;100152.03;;;22.21;90.83
41800;BME280;27468;47.460;19.034;2023-09-19T10:34:47;100191.84;;;22.53;90.42
41800;BME280;27468;47.460;19.034;2023-09-19T10:37:13;100190.13;;;22.52;89.45
41800;BME280;27468;47.460;19.034;2023-09-19T10:39:40;100177.25;;;22.44;90.42
41800;BME280;27468;47.460;19.034;2023-09-19T10:42:14;100107.03;;;21.99;89.39
41800;BME280;27468;47.460;19.034;2023-09-19T10:44:42;100188.00;;;22.44;88.57
41800;BME280;27468;47.460;19.034;2023-09-19T10:47:09;100181.00;;;22.42;89.03
41800;BME280;27468;47.460;19.034;2023-09-19T10:49:35;100192.81;;;22.52;88.63
41800;BME280;27468;47.460;19.034;2023-09-19T10:52:00;100170.69;;;22.48;89.61
41800;BME280;27468;47.460;19.034;2023-09-19T10:54:31;100182.44;;;22.58;89.06
41800;BME280;27468;47.460;19.034;2023-09-19T10:56:59;100199.31;;;22.60;88.15
41800;BME280;27468;47.460;19.034;2023-09-19T10:59:26;100198.13;;;22.64;88.70
41800;BME280;27468;47.460;19.034;2023-09-19T11:02:00;100198.34;;;22.61;87.86
41800;BME280;27468;47.460;19.034;2023-09-19T11:04:40;100196.38;;;22.76;88.38
41800;BME280;27468;47.460;19.034;2023-09-19T11:07:07;100213.94;;;22.82;88.35
41800;BME280;27468;47.460;19.034;2023-09-19T11:09:55;100212.28;;;22.92;87.52
41800;BME280;27468;47.460;19.034;2023-09-19T11:15:01;100196.59;;;22.86;86.54
41800;BME280;27468;47.460;19.034;2023-09-19T11:30:39;100181.31;;;23.34;74.39
41800;BME280;27468;47.460;19.034;2023-09-19T11:33:18;100205.50;;;23.34;72.51
41800;BME280;27468;47.460;19.034;2023-09-19T11:46:27;100189.16;;;22.89;72.60
41800;BME280;27468;47.460;19.034;2023-09-19T11:48:53;100191.13;;;22.74;70.23
41800;BME280;27468;47.460;19.034;2023-09-19T11:51:24;100177.56;;;22.76;70.74
41800;BME280;27468;47.460;19.034;2023-09-19T11:53:55;100156.50;;;22.46;71.00
41800;BME280;27468;47.460;19.034;2023-09-19T11:56:22;100151.13;;;22.46;71.52
41800;BME280;27468;47.460;19.034;2023-09-19T11:58:54;100178.13;;;22.68;72.44
41800;BME280;27468;47.460;19.034;2023-09-19T12:01:24;100173.16;;;22.75;73.96
41800;BME280;27468;47.460;19.034;2023-09-19T12:03:55;100156.72;;;22.80;73.72
41800;BME280;27468;47.460;19.034;2023-09-19T12:06:23;100163.59;;;22.84;74.87
41800;BME280;27468;47.460;19.034;2023-09-19T12:08:49;100143.72;;;22.73;74.44
41800;BME280;27468;47.460;19.034;2023-09-19T12:11:17;100140.06;;;22.74;74.28
41800;BME280;27468;47.460;19.034;2023-09-19T12:13:47;100168.22;;;22.82;73.06
41800;BME280;27468;47.460;19.034;2023-09-19T12:16:18;100154.22;;;22.77;75.35
41800;BME280;27468;47.460;19.034;2023-09-19T12:18:48;100135.56;;;22.62;75.18
41800;BME280;27468;47.460;19.034;2023-09-19T12:21:26;100169.38;;;22.90;74.16
41800;BME280;27468;47.460;19.034;2023-09-19T12:24:06;100166.97;;;22.98;71.63
41800;BME280;27468;47.460;19.034;2023-09-19T12:26:44;100172.03;;;23.03;72.78
41800;BME280;27468;47.460;19.034;2023-09-19T12:29:17;100170.97;;;23.17;72.79
41800;BME280;27468;47.460;19.034;2023-09-19T12:31:54;100143.00;;;22.95;71.62
41800;BME280;27468;47.460;19.034;2023-09-19T12:34:28;100189.94;;;23.26;69.71
41800;BME280;27468;47.460;19.034;2023-09-19T12:37:13;100168.59;;;23.12;67.49
41800;BME280;27468;47.460;19.034;2023-09-19T12:39:51;100185.78;;;23.22;67.98
41800;BME280;27468;47.460;19.034;2023-09-19T12:42:23;100184.81;;;23.23;68.98
41800;BME280;27468;47.460;19.034;2023-09-19T12:44:50;100179.41;;;23.23;69.16
41800;BME280;27468;47.460;19.034;2023-09-19T12:47:21;100182.75;;;23.27;68.77
41800;BME280;27468;47.460;19.034;2023-09-19T12:52:49;100185.19;;;23.30;68.35
41800;BME280;27468;47.460;19.034;2023-09-19T13:00:21;100148.34;;;23.19;68.33
41800;BME280;27468;47.460;19.034;2023-09-19T13:03:12;100130.47;;;23.07;68.16
41800;BME280;27468;47.460;19.034;2023-09-19T13:05:55;100182.03;;;23.36;68.25
41800;BME280;27468;47.460;19.034;2023-09-19T13:08:31;100179.69;;;23.31;68.17
41800;BME280;27468;47.460;19.034;2023-09-19T13:11:08;100178.00;;;23.30;67.11
41800;BME280;27468;47.460;19.034;2023-09-19T13:13:45;100186.28;;;23.27;67.84
41800;BME280;27468;47.460;19.034;2023-09-19T13:16:14;100159.97;;;23.20;67.90
41800;BME280;27468;47.460;19.034;2023-09-19T13:18:50;100188.97;;;23.27;67.20
41800;BME280;27468;47.460;19.034;2023-09-19T13:21:29;100192.00;;;23.23;67.97
41800;BME280;27468;47.460;19.034;2023-09-19T13:24:19;100199.44;;;23.08;66.96
41800;BME280;27468;47.460;19.034;2023-09-19T13:26:44;100172.47;;;22.97;67.68
41800;BME280;27468;47.460;19.034;2023-09-19T13:29:11;100166.34;;;22.95;67.43
41800;BME280;27468;47.460;19.034;2023-09-19T13:31:36;100165.44;;;22.83;68.29
41800;BME280;27468;47.460;19.034;2023-09-19T13:34:06;100169.94;;;22.83;68.13
41800;BME280;27468;47.460;19.034;2023-09-19T13:36:32;100200.22;;;22.97;67.63
41800;BME280;27468;47.460;19.034;2023-09-19T13:38:58;100186.47;;;22.89;67.60
41800;BME280;27468;47.460;19.034;2023-09-19T13:41:25;100204.00;;;22.95;68.20
41800;BME280;27468;47.460;19.034;2023-09-19T13:43:51;100189.72;;;22.82;67.98
41800;BME280;27468;47.460;19.034;2023-09-19T13:46:16;100213.78;;;22.96;68.28